sensor_id;sensor_type;location;lat;lon;timestamp;pressure;altitude;pressure_sealevel;temperature;humidity
73558;BME280;61829;53.286;10.434;2023-04-05T00:01:48;102358.78;;;-1.30;79.96
73558;BME280;61829;53.286;10.434;2023-04-05T00:04:15;102354.56;;;-1.34;79.83
73558;BME280;61829;53.286;10.434;2023-04-05T00:06:46;102356.41;;;-1.36;79.97
73558;BME280;61829;53.286;10.434;2023-04-05T00:09:17;102350.41;;;-1.40;80.01
73558;BME280;61829;53.286;10.434;2023-04-05T00:11:44;102357.63;;;-1.43;80.63
73558;BME280;61829;53.286;10.434;2023-04-05T00:14:10;102355.97;;;-1.46;81.06
73558;BME280;61829;53.286;10.434;2023-04-05T00:16:35;102353.47;;;-1.49;81.17
73558;BME280;61829;53.286;10.434;2023-04-05T00:19:01;102350.97;;;-1.52;81.38
73558;BME280;61829;53.286;10.434;2023-04-05T00:21:27;102348.47;;;-1.55;81.60
73558;BME280;61829;53.286;10.434;2023-04-05T00:23:55;102352.97;;;-1.57;81.37
73558;BME280;61829;53.286;10.434;2023-04-05T00:26:24;102349.53;;;-1.59;81.34
73558;BME280;61829;53.286;10.434;2023-04-05T00:28:50;102359.38;;;-1.63;81.54
73558;BME280;61829;53.286;10.434;2023-04-05T00:31:17;102360.38;;;-1.65;81.78
73558;BME280;61829;53.286;10.434;2023-04-05T00:33:44;102357.88;;;-1.68;82.22
73558;BME280;61829;53.286;10.434;2023-04-05T00:36:16;102357.94;;;-1.70;82.79
73558;BME280;61829;53.286;10.434;2023-04-05T00:38:46;102359.78;;;-1.72;82.66
73558;BME280;61829;53.286;10.434;2023-04-05T00:41:12;102359.00;;;-1.74;82.62
73558;BME280;61829;53.286;10.434;2023-04-05T00:43:39;102358.28;;;-1.77;83.04
73558;BME280;61829;53.286;10.434;2023-04-05T00:49:17;102360.25;;;-1.83;82.96
73558;BME280;61829;53.286;10.434;2023-04-05T00:51:44;102363.09;;;-1.87;83.33
73558;BME280;61829;53.286;10.434;2023-04-05T00:54:11;102353.59;;;-1.91;83.19
73558;BME280;61829;53.286;10.434;2023-04-05T00:56:38;102353.66;;;-1.93;83.18
73558;BME280;61829;53.286;10.434;2023-04-05T00:59:05;102356.38;;;-1.94;83.05
73558;BME280;61829;53.286;10.434;2023-04-05T01:01:31;102351.22;;;-1.97;83.40
73558;BME280;61829;53.286;10.434;2023-04-05T01:04:02;102353.13;;;-2.01;83.57
73558;BME280;61829;53.286;10.434;2023-04-05T01:06:57;102349.72;;;-2.03;83.87
73558;BME280;61829;53.286;10.434;2023-04-05T01:12:09;102342.81;;;-2.07;84.20
73558;BME280;61829;53.286;10.434;2023-04-05T01:17:15;102346.66;;;-2.14;84.39
73558;BME280;61829;53.286;10.434;2023-04-05T01:19:55;102345.00;;;-2.17;84.59
73558;BME280;61829;53.286;10.434;2023-04-05T01:28:22;102338.22;;;-2.22;85.57
73558;BME280;61829;53.286;10.434;2023-04-05T01:31:06;102337.50;;;-2.26;85.65
73558;BME280;61829;53.286;10.434;2023-04-05T01:33:43;102337.53;;;-2.28;85.53
73558;BME280;61829;53.286;10.434;2023-04-05T01:36:30;102335.03;;;-2.31;86.13
73558;BME280;61829;53.286;10.434;2023-04-05T01:39:00;102329.88;;;-2.34;85.82
73558;BME280;61829;53.286;10.434;2023-04-05T01:41:28;102327.28;;;-2.35;85.99
73558;BME280;61829;53.286;10.434;2023-04-05T01:47:35;102318.78;;;-2.42;86.28
73558;BME280;61829;53.286;10.434;2023-04-05T01:50:01;102311.84;;;-2.44;86.32
73558;BME280;61829;53.286;10.434;2023-04-05T01:52:27;102318.06;;;-2.45;86.68
73558;BME280;61829;53.286;10.434;2023-04-05T01:54:53;102308.47;;;-2.48;86.25
73558;BME280;61829;53.286;10.434;2023-04-05T01:57:19;102310.31;;;-2.50;86.84
73558;BME280;61829;53.286;10.434;2023-04-05T01:59:44;102298.97;;;-2.52;86.93
73558;BME280;61829;53.286;10.434;2023-04-05T02:02:10;102306.88;;;-2.52;86.92
73558;BME280;61829;53.286;10.434;2023-04-05T02:04:36;102302.66;;;-2.56;87.04
73558;BME280;61829;53.286;10.434;2023-04-05T02:07:02;102293.94;;;-2.58;86.78
73558;BME280;61829;53.286;10.434;2023-04-05T02:09:29;102293.09;;;-2.59;86.87
73558;BME280;61829;53.286;10.434;2023-04-05T02:11:55;102290.53;;;-2.60;86.73
73558;BME280;61829;53.286;10.434;2023-04-05T02:14:21;102277.53;;;-2.65;87.09
73558;BME280;61829;53.286;10.434;2023-04-05T02:16:47;102285.56;;;-2.68;86.81
73558;BME280;61829;53.286;10.434;2023-04-05T02:19:13;102273.34;;;-2.71;86.53
73558;BME280;61829;53.286;10.434;2023-04-05T02:21:41;102279.63;;;-2.73;86.99
73558;BME280;61829;53.286;10.434;2023-04-05T02:24:07;102275.31;;;-2.76;87.45
73558;BME280;61829;53.286;10.434;2023-04-05T02:26:33;102277.16;;;-2.78;86.97
73558;BME280;61829;53.286;10.434;2023-04-05T02:28:58;102275.50;;;-2.80;86.82
73558;BME280;61829;53.286;10.434;2023-04-05T02:31:25;102276.44;;;-2.81;87.34
73558;BME280;61829;53.286;10.434;2023-04-05T02:33:50;102258.09;;;-2.84;86.74
73558;BME280;61829;53.286;10.434;2023-04-05T02:36:16;102268.72;;;-2.86;87.34
73558;BME280;61829;53.286;10.434;2023-04-05T02:38:42;102259.06;;;-2.87;87.45
73558;BME280;61829;53.286;10.434;2023-04-05T02:41:09;102262.69;;;-2.89;87.88
73558;BME280;61829;53.286;10.434;2023-04-05T02:43:36;102259.34;;;-2.93;87.96
73558;BME280;61829;53.286;10.434;2023-04-05T02:46:02;102257.63;;;-2.94;87.87
73558;BME280;61829;53.286;10.434;2023-04-05T02:48:28;102262.81;;;-2.92;88.19
73558;BME280;61829;53.286;10.434;2023-04-05T02:50:54;102269.19;;;-2.98;88.66
73558;BME280;61829;53.286;10.434;2023-04-05T02:53:20;102276.44;;;-3.03;88.56
73558;BME280;61829;53.286;10.434;2023-04-05T02:55:56;102270.38;;;-3.05;89.15
73558;BME280;61829;53.286;10.434;2023-04-05T02:58:23;102267.91;;;-3.10;89.34
73558;BME280;61829;53.286;10.434;2023-04-05T03:00:51;102267.97;;;-3.11;89.73
73558;BME280;61829;53.286;10.434;2023-04-05T03:03:19;102274.19;;;-3.12;89.80
73558;BME280;61829;53.286;10.434;2023-04-05T03:05:47;102275.97;;;-3.13;89.66
73558;BME280;61829;53.286;10.434;2023-04-05T03:08:16;102276.81;;;-3.12;89.82
73558;BME280;61829;53.286;10.434;2023-04-05T03:10:51;102274.19;;;-3.12;89.65
73558;BME280;61829;53.286;10.434;2023-04-05T03:13:17;102273.38;;;-3.14;89.29
73558;BME280;61829;53.286;10.434;2023-04-05T03:15:43;102267.31;;;-3.17;89.92
73558;BME280;61829;53.286;10.434;2023-04-05T03:18:09;102274.34;;;-3.17;90.53
73558;BME280;61829;53.286;10.434;2023-04-05T03:20:37;102265.59;;;-3.18;90.05
73558;BME280;61829;53.286;10.434;2023-04-05T03:23:08;102267.50;;;-3.21;89.87
73558;BME280;61829;53.286;10.434;2023-04-05T03:25:35;102265.78;;;-3.22;90.34
73558;BME280;61829;53.286;10.434;2023-04-05T03:28:17;102271.09;;;-3.24;90.15
73558;BME280;61829;53.286;10.434;2023-04-05T03:30:45;102257.13;;;-3.26;91.14
73558;BME280;61829;53.286;10.434;2023-04-05T03:33:11;102262.50;;;-3.29;90.91
73558;BME280;61829;53.286;10.434;2023-04-05T03:35:37;102259.94;;;-3.30;91.07
73558;BME280;61829;53.286;10.434;2023-04-05T03:38:04;102259.16;;;-3.32;91.67
73558;BME280;61829;53.286;10.434;2023-04-05T03:40:30;102258.28;;;-3.33;91.42
73558;BME280;61829;53.286;10.434;2023-04-05T03:42:56;102253.06;;;-3.34;91.53
73558;BME280;61829;53.286;10.434;2023-04-05T03:45:21;102260.00;;;-3.32;92.53
73558;BME280;61829;53.286;10.434;2023-04-05T03:47:49;102266.13;;;-3.31;92.58
73558;BME280;61829;53.286;10.434;2023-04-05T03:50:15;102262.63;;;-3.32;92.22
73558;BME280;61829;53.286;10.434;2023-04-05T03:52:40;102261.78;;;-3.32;92.37
73558;BME280;61829;53.286;10.434;2023-04-05T03:55:06;102265.38;;;-3.35;92.35
73558;BME280;61829;53.286;10.434;2023-04-05T03:57:33;102263.72;;;-3.38;92.49
73558;BME280;61829;53.286;10.434;2023-04-05T03:59:59;102262.03;;;-3.39;92.29
73558;BME280;61829;53.286;10.434;2023-04-05T04:02:25;102269.06;;;-3.39;91.90
73558;BME280;61829;53.286;10.434;2023-04-05T04:04:51;102267.47;;;-3.43;92.46
73558;BME280;61829;53.286;10.434;2023-04-05T04:07:17;102259.69;;;-3.46;92.26
73558;BME280;61829;53.286;10.434;2023-04-05T04:09:44;102264.09;;;-3.47;92.32
73558;BME280;61829;53.286;10.434;2023-04-05T04:12:09;102266.78;;;-3.48;92.23
73558;BME280;61829;53.286;10.434;2023-04-05T04:14:36;102262.38;;;-3.48;91.88
73558;BME280;61829;53.286;10.434;2023-04-05T04:17:01;102260.78;;;-3.52;92.04
73558;BME280;61829;53.286;10.434;2023-04-05T04:19:28;102261.69;;;-3.53;92.38
73558;BME280;61829;53.286;10.434;2023-04-05T04:21:54;102265.31;;;-3.55;92.71
73558;BME280;61829;53.286;10.434;2023-04-05T04:24:20;102265.44;;;-3.58;92.64
73558;BME280;61829;53.286;10.434;2023-04-05T04:26:47;102261.97;;;-3.61;92.65
73558;BME280;61829;53.286;10.434;2023-04-05T04:52:10;102263.34;;;-3.74;93.38
73558;BME280;61829;53.286;10.434;2023-04-05T05:14:08;102263.06;;;-3.66;94.44
73558;BME280;61829;53.286;10.434;2023-04-05T05:25:45;102264.44;;;-3.56;94.74
73558;BME280;61829;53.286;10.434;2023-04-05T06:04:10;102241.00;;;-2.96;92.79
73558;BME280;61829;53.286;10.434;2023-04-05T06:07:39;102241.66;;;-2.49;91.91
73558;BME280;61829;53.286;10.434;2023-04-05T06:10:08;102243.56;;;-1.73;91.58
73558;BME280;61829;53.286;10.434;2023-04-05T06:12:34;102236.38;;;-0.96;87.74
73558;BME280;61829;53.286;10.434;2023-04-05T06:15:01;102235.44;;;-0.25;84.28
73558;BME280;61829;53.286;10.434;2023-04-05T06:17:26;102252.59;;;0.34;81.13
73558;BME280;61829;53.286;10.434;2023-04-05T06:19:53;102248.16;;;0.82;78.38
73558;BME280;61829;53.286;10.434;2023-04-05T06:22:18;102243.72;;;0.83;76.95
73558;BME280;61829;53.286;10.434;2023-04-05T06:24:44;102242.75;;;0.84;76.90
73558;BME280;61829;53.286;10.434;2023-04-05T06:27:10;102242.09;;;0.80;76.65
73558;BME280;61829;53.286;10.434;2023-04-05T06:29:40;102237.72;;;0.79;77.21
73558;BME280;61829;53.286;10.434;2023-04-05T06:32:07;102246.53;;;0.80;76.91
73558;BME280;61829;53.286;10.434;2023-04-05T06:34:34;102241.41;;;0.77;75.81
73558;BME280;61829;53.286;10.434;2023-04-05T06:37:01;102238.94;;;0.74;76.59
73558;BME280;61829;53.286;10.434;2023-04-05T06:39:27;102246.09;;;0.87;75.83
73558;BME280;61829;53.286;10.434;2023-04-05T06:41:53;102234.53;;;0.88;75.68
73558;BME280;61829;53.286;10.434;2023-04-05T06:44:19;102237.94;;;0.90;75.66
73558;BME280;61829;53.286;10.434;2023-04-05T06:46:45;102225.59;;;1.35;75.29
73558;BME280;61829;53.286;10.434;2023-04-05T06:49:11;102219.91;;;2.00;73.39
73558;BME280;61829;53.286;10.434;2023-04-05T06:51:38;102226.59;;;2.63;70.66
73558;BME280;61829;53.286;10.434;2023-04-05T06:54:04;102218.97;;;3.26;68.02
73558;BME280;61829;53.286;10.434;2023-04-05T06:56:29;102210.69;;;3.81;65.88
73558;BME280;61829;53.286;10.434;2023-04-05T06:58:55;102206.16;;;4.33;63.44
73558;BME280;61829;53.286;10.434;2023-04-05T07:01:24;102213.72;;;4.76;61.69
73558;BME280;61829;53.286;10.434;2023-04-05T07:03:51;102204.97;;;5.33;59.97
73558;BME280;61829;53.286;10.434;2023-04-05T07:06:17;102205.09;;;5.90;59.02
73558;BME280;61829;53.286;10.434;2023-04-05T07:08:44;102207.41;;;6.39;57.10
73558;BME280;61829;53.286;10.434;2023-04-05T07:11:12;102208.66;;;6.79;55.48
73558;BME280;61829;53.286;10.434;2023-04-05T07:13:38;102204.13;;;7.23;53.59
73558;BME280;61829;53.286;10.434;2023-04-05T07:16:04;102201.75;;;7.61;52.27
73558;BME280;61829;53.286;10.434;2023-04-05T07:18:30;102207.44;;;7.99;51.55
73558;BME280;61829;53.286;10.434;2023-04-05T07:20:57;102201.84;;;8.42;50.73
73558;BME280;61829;53.286;10.434;2023-04-05T07:23:25;102200.94;;;8.82;48.92
73558;BME280;61829;53.286;10.434;2023-04-05T07:25:52;102200.97;;;9.21;47.49
73558;BME280;61829;53.286;10.434;2023-04-05T07:28:19;102190.56;;;9.55;47.28
73558;BME280;61829;53.286;10.434;2023-04-05T07:30:44;102202.88;;;9.67;45.81
73558;BME280;61829;53.286;10.434;2023-04-05T07:33:10;102195.59;;;9.87;45.21
73558;BME280;61829;53.286;10.434;2023-04-05T07:35:37;102198.88;;;10.19;44.18
73558;BME280;61829;53.286;10.434;2023-04-05T07:38:03;102209.84;;;10.45;43.30
73558;BME280;61829;53.286;10.434;2023-04-05T07:40:28;102206.81;;;10.75;42.50
73558;BME280;61829;53.286;10.434;2023-04-05T07:42:54;102200.53;;;11.02;42.95
73558;BME280;61829;53.286;10.434;2023-04-05T07:45:21;102203.53;;;11.17;42.36
73558;BME280;61829;53.286;10.434;2023-04-05T07:47:47;102199.19;;;11.07;41.99
73558;BME280;61829;53.286;10.434;2023-04-05T07:50:12;102185.56;;;11.08;42.32
73558;BME280;61829;53.286;10.434;2023-04-05T07:52:40;102187.88;;;11.21;41.44
73558;BME280;61829;53.286;10.434;2023-04-05T07:55:08;102189.28;;;11.51;41.07
73558;BME280;61829;53.286;10.434;2023-04-05T07:57:34;102200.41;;;11.74;40.27
73558;BME280;61829;53.286;10.434;2023-04-05T08:00:00;102193.34;;;11.99;39.90
73558;BME280;61829;53.286;10.434;2023-04-05T08:02:26;102194.22;;;11.82;38.60
73558;BME280;61829;53.286;10.434;2023-04-05T08:04:54;102187.41;;;11.96;38.88
73558;BME280;61829;53.286;10.434;2023-04-05T08:07:21;102190.88;;;12.06;38.53
73558;BME280;61829;53.286;10.434;2023-04-05T08:09:48;102186.63;;;12.03;39.19
73558;BME280;61829;53.286;10.434;2023-04-05T08:12:15;102187.38;;;12.22;39.32
73558;BME280;61829;53.286;10.434;2023-04-05T08:14:42;102187.16;;;12.49;37.56
73558;BME280;61829;53.286;10.434;2023-04-05T08:17:07;102184.53;;;12.74;36.83
73558;BME280;61829;53.286;10.434;2023-04-05T08:19:34;102180.97;;;12.90;35.91
73558;BME280;61829;53.286;10.434;2023-04-05T08:22:00;102181.31;;;12.87;35.71
73558;BME280;61829;53.286;10.434;2023-04-05T08:24:26;102182.16;;;12.95;35.69
73558;BME280;61829;53.286;10.434;2023-04-05T08:26:52;102184.56;;;13.07;35.49
73558;BME280;61829;53.286;10.434;2023-04-05T08:29:18;102184.91;;;13.12;33.97
73558;BME280;61829;53.286;10.434;2023-04-05T08:31:44;102178.97;;;13.00;33.68
73558;BME280;61829;53.286;10.434;2023-04-05T08:34:10;102184.91;;;13.12;35.05
73558;BME280;61829;53.286;10.434;2023-04-05T08:36:36;102177.13;;;13.25;33.90
73558;BME280;61829;53.286;10.434;2023-04-05T08:39:01;102176.63;;;13.30;31.06
73558;BME280;61829;53.286;10.434;2023-04-05T08:41:35;102175.28;;;13.25;33.97
73558;BME280;61829;53.286;10.434;2023-04-05T08:44:02;102178.31;;;13.47;32.32
73558;BME280;61829;53.286;10.434;2023-04-05T08:46:33;102175.78;;;13.45;30.20
73558;BME280;61829;53.286;10.434;2023-04-05T08:49:07;102180.19;;;13.30;31.45
73558;BME280;61829;53.286;10.434;2023-04-05T08:51:36;102163.06;;;13.21;31.15
73558;BME280;61829;53.286;10.434;2023-04-05T08:54:03;102172.38;;;12.94;30.91
73558;BME280;61829;53.286;10.434;2023-04-05T08:56:34;102167.41;;;12.73;30.28
73558;BME280;61829;53.286;10.434;2023-04-05T08:59:09;102172.88;;;12.90;30.66
73558;BME280;61829;53.286;10.434;2023-04-05T09:01:37;102157.13;;;13.01;31.05
73558;BME280;61829;53.286;10.434;2023-04-05T09:04:05;102164.94;;;12.88;30.89
73558;BME280;61829;53.286;10.434;2023-04-05T09:06:34;102152.41;;;12.87;32.35
73558;BME280;61829;53.286;10.434;2023-04-05T09:09:05;102148.03;;;13.11;32.43
73558;BME280;61829;53.286;10.434;2023-04-05T09:11:32;102149.91;;;13.27;31.30
73558;BME280;61829;53.286;10.434;2023-04-05T09:13:58;102160.88;;;13.41;31.11
73558;BME280;61829;53.286;10.434;2023-04-05T09:16:25;102147.16;;;13.18;30.55
73558;BME280;61829;53.286;10.434;2023-04-05T09:18:51;102146.66;;;13.07;31.49
73558;BME280;61829;53.286;10.434;2023-04-05T09:21:20;102153.44;;;13.35;31.93
73558;BME280;61829;53.286;10.434;2023-04-05T09:23:53;102154.97;;;13.38;31.15
73558;BME280;61829;53.286;10.434;2023-04-05T09:26:23;102151.78;;;13.26;29.70
73558;BME280;61829;53.286;10.434;2023-04-05T09:28:49;102143.59;;;12.77;31.67
73558;BME280;61829;53.286;10.434;2023-04-05T09:31:33;102146.44;;;12.67;29.59
73558;BME280;61829;53.286;10.434;2023-04-05T09:34:04;102151.09;;;12.32;31.60
73558;BME280;61829;53.286;10.434;2023-04-05T09:36:34;102152.03;;;12.57;31.05
73558;BME280;61829;53.286;10.434;2023-04-05T09:39:07;102146.25;;;12.52;28.61
73558;BME280;61829;53.286;10.434;2023-04-05T09:41:35;102147.63;;;12.65;30.38
73558;BME280;61829;53.286;10.434;2023-04-05T09:44:02;102147.50;;;12.91;31.74
73558;BME280;61829;53.286;10.434;2023-04-05T09:46:32;102152.41;;;13.12;29.78
73558;BME280;61829;53.286;10.434;2023-04-05T09:48:59;102148.22;;;13.25;30.66
73558;BME280;61829;53.286;10.434;2023-04-05T09:51:33;102143.66;;;13.34;29.17
73558;BME280;61829;53.286;10.434;2023-04-05T09:54:03;102147.19;;;13.43;29.58
73558;BME280;61829;53.286;10.434;2023-04-05T09:56:34;102143.97;;;13.39;29.11
73558;BME280;61829;53.286;10.434;2023-04-05T09:59:02;102140.91;;;13.01;30.49
73558;BME280;61829;53.286;10.434;2023-04-05T10:01:30;102142.59;;;13.19;30.16
73558;BME280;61829;53.286;10.434;2023-04-05T10:03:57;102143.63;;;13.42;30.45
73558;BME280;61829;53.286;10.434;2023-04-05T10:06:33;102141.41;;;13.62;30.11
73558;BME280;61829;53.286;10.434;2023-04-05T10:09:00;102129.91;;;13.44;27.73
73558;BME280;61829;53.286;10.434;2023-04-05T10:11:27;102132.63;;;13.44;27.44
73558;BME280;61829;53.286;10.434;2023-04-05T10:13:53;102121.50;;;13.31;29.67
73558;BME280;61829;53.286;10.434;2023-04-05T10:16:22;102125.34;;;13.44;29.77
73558;BME280;61829;53.286;10.434;2023-04-05T10:18:51;102123.63;;;13.60;29.82
73558;BME280;61829;53.286;10.434;2023-04-05T10:21:20;102121.22;;;13.73;29.70
73558;BME280;61829;53.286;10.434;2023-04-05T10:27:07;102114.19;;;13.95;29.00
73558;BME280;61829;53.286;10.434;2023-04-05T10:29:52;102111.81;;;14.00;30.27
73558;BME280;61829;53.286;10.434;2023-04-05T10:35:46;102110.09;;;13.60;29.40
73558;BME280;61829;53.286;10.434;2023-04-05T10:40:48;102106.59;;;13.35;32.28
73558;BME280;61829;53.286;10.434;2023-04-05T10:43:20;102101.47;;;13.56;30.19
73558;BME280;61829;53.286;10.434;2023-04-05T10:51:33;102093.75;;;13.84;28.74
73558;BME280;61829;53.286;10.434;2023-04-05T10:53:59;102089.44;;;14.29;30.82
73558;BME280;61829;53.286;10.434;2023-04-05T10:56:25;102084.47;;;14.72;31.19
73558;BME280;61829;53.286;10.434;2023-04-05T10:59:05;102089.34;;;14.46;28.76
73558;BME280;61829;53.286;10.434;2023-04-05T11:01:32;102080.81;;;13.95;29.29
73558;BME280;61829;53.286;10.434;2023-04-05T11:04:10;102078.66;;;13.90;31.08
73558;BME280;61829;53.286;10.434;2023-04-05T11:06:37;102079.59;;;13.66;30.23
73558;BME280;61829;53.286;10.434;2023-04-05T11:11:44;102065.44;;;13.47;32.39
73558;BME280;61829;53.286;10.434;2023-04-05T11:16:54;102066.50;;;12.97;32.10
73558;BME280;61829;53.286;10.434;2023-04-05T11:22:12;102064.06;;;12.12;32.82
73558;BME280;61829;53.286;10.434;2023-04-05T11:24:50;102058.81;;;12.11;32.77
73558;BME280;61829;53.286;10.434;2023-04-05T11:27:26;102055.59;;;12.07;31.37
73558;BME280;61829;53.286;10.434;2023-04-05T11:29:59;102064.53;;;12.08;33.85
73558;BME280;61829;53.286;10.434;2023-04-05T11:35:07;102057.78;;;12.04;32.88
73558;BME280;61829;53.286;10.434;2023-04-05T11:40:24;102045.97;;;12.13;31.52
73558;BME280;61829;53.286;10.434;2023-04-05T11:43:05;102048.72;;;12.29;30.95
73558;BME280;61829;53.286;10.434;2023-04-05T11:45:33;102043.50;;;12.52;29.24
73558;BME280;61829;53.286;10.434;2023-04-05T11:48:04;102045.69;;;12.65;30.00
73558;BME280;61829;53.286;10.434;2023-04-05T11:50:31;102029.66;;;12.88;29.97
73558;BME280;61829;53.286;10.434;2023-04-05T11:55:34;102034.50;;;13.42;30.60
73558;BME280;61829;53.286;10.434;2023-04-05T11:58:00;102028.34;;;13.56;28.81
73558;BME280;61829;53.286;10.434;2023-04-05T12:00:26;102030.13;;;13.72;28.98
73558;BME280;61829;53.286;10.434;2023-04-05T12:02:55;102026.03;;;13.37;27.56
73558;BME280;61829;53.286;10.434;2023-04-05T12:05:21;102018.75;;;13.37;30.60
73558;BME280;61829;53.286;10.434;2023-04-05T12:07:53;102009.69;;;13.61;30.80
73558;BME280;61829;53.286;10.434;2023-04-05T12:10:20;102011.22;;;13.95;29.60
73558;BME280;61829;53.286;10.434;2023-04-05T12:12:46;102005.97;;;13.93;29.08
73558;BME280;61829;53.286;10.434;2023-04-05T12:15:14;101993.75;;;14.21;28.83
73558;BME280;61829;53.286;10.434;2023-04-05T12:17:43;101999.16;;;14.52;30.38
73558;BME280;61829;53.286;10.434;2023-04-05T12:20:14;101991.47;;;14.78;28.43
73558;BME280;61829;53.286;10.434;2023-04-05T12:22:42;101991.03;;;15.04;28.08
73558;BME280;61829;53.286;10.434;2023-04-05T12:25:13;101978.50;;;15.33;27.86
73558;BME280;61829;53.286;10.434;2023-04-05T12:27:40;101977.19;;;15.44;28.38
73558;BME280;61829;53.286;10.434;2023-04-05T12:33:00;101979.72;;;15.01;27.81
73558;BME280;61829;53.286;10.434;2023-04-05T12:35:32;101981.19;;;14.89;27.72
73558;BME280;61829;53.286;10.434;2023-04-05T12:38:06;101978.75;;;14.94;25.69
73558;BME280;61829;53.286;10.434;2023-04-05T12:40:33;101977.00;;;15.01;25.50
73558;BME280;61829;53.286;10.434;2023-04-05T12:43:04;101965.38;;;15.37;27.55
73558;BME280;61829;53.286;10.434;2023-04-05T12:45:31;101974.66;;;15.72;26.80
73558;BME280;61829;53.286;10.434;2023-04-05T12:48:19;101972.09;;;15.70;25.34
73558;BME280;61829;53.286;10.434;2023-04-05T12:50:48;101967.34;;;15.43;27.07
73558;BME280;61829;53.286;10.434;2023-04-05T12:53:21;101967.56;;;15.26;27.11
73558;BME280;61829;53.286;10.434;2023-04-05T12:55:51;101962.09;;;14.82;26.55
73558;BME280;61829;53.286;10.434;2023-04-05T12:58:21;101956.53;;;14.37;31.27
73558;BME280;61829;53.286;10.434;2023-04-05T13:00:48;101954.75;;;14.07;28.49
73558;BME280;61829;53.286;10.434;2023-04-05T13:03:18;101962.53;;;14.10;28.74
73558;BME280;61829;53.286;10.434;2023-04-05T13:05:48;101946.69;;;13.99;28.24
73558;BME280;61829;53.286;10.434;2023-04-05T13:08:15;101944.75;;;13.84;29.91
73558;BME280;61829;53.286;10.434;2023-04-05T13:10:44;101945.25;;;13.48;27.75
73558;BME280;61829;53.286;10.434;2023-04-05T13:13:11;101945.47;;;13.39;29.78
73558;BME280;61829;53.286;10.434;2023-04-05T13:15:38;101936.81;;;13.43;29.39
73558;BME280;61829;53.286;10.434;2023-04-05T13:18:37;101934.00;;;13.29;29.19
73558;BME280;61829;53.286;10.434;2023-04-05T13:21:03;101934.13;;;13.43;29.18
73558;BME280;61829;53.286;10.434;2023-04-05T13:23:33;101926.31;;;13.48;29.25
73558;BME280;61829;53.286;10.434;2023-04-05T13:26:01;101931.53;;;13.50;30.03
73558;BME280;61829;53.286;10.434;2023-04-05T13:28:27;101929.56;;;13.36;28.21
73558;BME280;61829;53.286;10.434;2023-04-05T13:30:53;101922.22;;;13.53;28.52
73558;BME280;61829;53.286;10.434;2023-04-05T13:33:19;101920.28;;;13.61;28.13
73558;BME280;61829;53.286;10.434;2023-04-05T13:35:46;101928.94;;;13.65;26.58
73558;BME280;61829;53.286;10.434;2023-04-05T13:38:12;101914.97;;;13.76;27.48
73558;BME280;61829;53.286;10.434;2023-04-05T13:40:38;101915.53;;;13.95;26.46
73558;BME280;61829;53.286;10.434;2023-04-05T13:43:04;101910.16;;;13.86;27.21
73558;BME280;61829;53.286;10.434;2023-04-05T13:45:30;101904.22;;;13.91;27.00
73558;BME280;61829;53.286;10.434;2023-04-05T13:47:57;101908.94;;;13.66;25.91
73558;BME280;61829;53.286;10.434;2023-04-05T13:50:24;101911.38;;;13.53;31.21
73558;BME280;61829;53.286;10.434;2023-04-05T13:52:50;101909.41;;;13.69;27.86
73558;BME280;61829;53.286;10.434;2023-04-05T13:55:16;101913.78;;;13.79;27.70
73558;BME280;61829;53.286;10.434;2023-04-05T13:57:42;101910.09;;;13.95;30.71
73558;BME280;61829;53.286;10.434;2023-04-05T14:00:09;101901.38;;;14.07;28.94
73558;BME280;61829;53.286;10.434;2023-04-05T14:02:35;101904.09;;;14.07;27.57
73558;BME280;61829;53.286;10.434;2023-04-05T14:05:01;101899.50;;;14.08;27.82
73558;BME280;61829;53.286;10.434;2023-04-05T14:07:28;101905.16;;;13.98;27.17
73558;BME280;61829;53.286;10.434;2023-04-05T14:09:55;101904.72;;;13.63;26.34
73558;BME280;61829;53.286;10.434;2023-04-05T14:12:22;101898.16;;;13.58;27.15
73558;BME280;61829;53.286;10.434;2023-04-05T14:14:49;101900.91;;;13.50;28.39
73558;BME280;61829;53.286;10.434;2023-04-05T14:17:16;101893.81;;;13.48;30.15
73558;BME280;61829;53.286;10.434;2023-04-05T14:19:42;101895.88;;;13.38;29.71
73558;BME280;61829;53.286;10.434;2023-04-05T14:22:08;101895.44;;;13.27;29.99
73558;BME280;61829;53.286;10.434;2023-04-05T14:24:34;101897.34;;;13.10;29.86
73558;BME280;61829;53.286;10.434;2023-04-05T14:27:01;101886.28;;;12.88;29.60
73558;BME280;61829;53.286;10.434;2023-04-05T14:29:28;101896.28;;;12.79;30.86
73558;BME280;61829;53.286;10.434;2023-04-05T14:31:54;101897.47;;;12.77;30.33
73558;BME280;61829;53.286;10.434;2023-04-05T14:34:21;101888.34;;;12.70;29.65
73558;BME280;61829;53.286;10.434;2023-04-05T14:36:47;101887.34;;;12.63;30.50
73558;BME280;61829;53.286;10.434;2023-04-05T14:39:14;101885.84;;;12.60;29.25
73558;BME280;61829;53.286;10.434;2023-04-05T14:41:41;101884.66;;;12.54;29.94
73558;BME280;61829;53.286;10.434;2023-04-05T14:44:08;101886.69;;;12.52;31.01
73558;BME280;61829;53.286;10.434;2023-04-05T14:46:34;101882.31;;;12.51;31.03
73558;BME280;61829;53.286;10.434;2023-04-05T14:49:00;101884.66;;;12.54;31.19
73558;BME280;61829;53.286;10.434;2023-04-05T14:51:26;101885.31;;;12.56;31.55
73558;BME280;61829;53.286;10.434;2023-04-05T14:53:52;101881.16;;;12.29;31.13
73558;BME280;61829;53.286;10.434;2023-04-05T14:56:18;101882.34;;;12.19;31.44
73558;BME280;61829;53.286;10.434;2023-04-05T14:58:44;101880.50;;;11.95;33.95
73558;BME280;61829;53.286;10.434;2023-04-05T15:01:11;101883.13;;;11.78;30.92
73558;BME280;61829;53.286;10.434;2023-04-05T15:03:37;101879.38;;;11.46;33.09
73558;BME280;61829;53.286;10.434;2023-04-05T15:06:03;101876.78;;;11.37;32.05